Time;durP1;ratioP1;P1;durP2;ratioP2;P2;SDS_P1;SDS_P2;PMS_P1;PMS_P2;Temp;Humidity;BMP_temperature;BMP_pressure;BME280_temperature;BME280_humidity;BME280_pressure;Samples;Min_cycle;Max_cycle;Signal;HPM_P1;HPM_P2
2022/01/17 00:01:12;;;;;;;34.43;19.57;;;3.50;99.90;;;;;;5057160;28;20233;-70
2022/01/17 00:04:01;;;;;;;35.03;19.87;;;3.50;99.90;;;;;;5045767;28;20231;-69
2022/01/17 00:06:50;;;;;;;38.13;20.37;;;3.60;99.90;;;;;;5057245;28;20229;-70
2022/01/17 00:09:38;;;;;;;38.63;20.30;;;3.50;99.90;;;;;;5048951;28;20219;-70
2022/01/17 00:12:29;;;;;;;38.90;20.20;;;3.60;99.90;;;;;;5042721;28;20223;-70
2022/01/17 00:15:24;;;;;;;42.43;21.67;;;3.60;99.90;;;;;;5042971;28;20228;-69
2022/01/17 00:18:31;;;;;;;42.13;21.43;;;3.60;99.90;;;;;;5044369;28;20212;-69
2022/01/17 00:21:20;;;;;;;39.47;21.20;;;3.60;99.90;;;;;;5048380;28;20318;-69
2022/01/17 00:24:09;;;;;;;42.03;22.47;;;3.60;99.90;;;;;;5058926;28;20354;-67
2022/01/17 00:26:58;;;;;;;39.90;21.70;;;3.60;99.90;;;;;;5058278;28;20228;-69
2022/01/17 00:29:46;;;;;;;42.23;20.93;;;3.60;99.90;;;;;;5044419;28;20224;-71
2022/01/17 00:32:37;;;;;;;41.83;21.73;;;3.60;99.90;;;;;;5046846;28;20240;-70
2022/01/17 00:35:25;;;;;;;40.57;22.03;;;3.60;99.90;;;;;;5040114;28;20213;-69
2022/01/17 00:38:18;;;;;;;48.10;22.63;;;3.60;99.90;;;;;;5048301;28;20227;-69
2022/01/17 00:41:06;;;;;;;45.67;22.93;;;3.70;99.90;;;;;;5056864;28;21039;-70
2022/01/17 00:43:55;;;;;;;43.73;23.20;;;3.60;99.90;;;;;;5058299;28;20596;-71
2022/01/17 00:46:44;;;;;;;44.30;23.43;;;3.60;99.90;;;;;;5057549;28;20734;-71
2022/01/17 00:49:34;;;;;;;44.47;22.67;;;3.60;99.90;;;;;;5058610;28;20243;-71
2022/01/17 00:52:23;;;;;;;46.17;23.00;;;3.60;99.90;;;;;;5057150;28;20224;-71
2022/01/17 00:55:11;;;;;;;43.57;23.07;;;3.60;99.90;;;;;;5043091;28;20339;-70
2022/01/17 00:58:00;;;;;;;44.97;22.60;;;3.70;99.90;;;;;;5058868;28;20230;-70
2022/01/17 01:00:49;;;;;;;43.33;21.97;;;3.80;99.90;;;;;;5058869;28;20226;-72
2022/01/17 01:03:37;;;;;;;50.20;23.03;;;3.70;99.90;;;;;;5046130;28;20224;-70
2022/01/17 01:06:27;;;;;;;45.40;23.57;;;3.70;99.90;;;;;;5047774;28;20834;-70
2022/01/17 01:09:16;;;;;;;44.97;23.17;;;3.70;99.90;;;;;;5057148;28;20248;-69
2022/01/17 01:12:05;;;;;;;49.60;24.17;;;3.80;99.90;;;;;;5043135;28;20232;-71
2022/01/17 01:14:54;;;;;;;48.60;22.87;;;3.70;99.90;;;;;;5057830;28;20424;-70
2022/01/17 01:17:50;;;;;;;39.50;20.00;;;3.70;99.90;;;;;;5058481;28;20243;-71
2022/01/17 01:21:01;;;;;;;44.77;23.30;;;3.70;99.90;;;;;;5043620;28;20686;-70
2022/01/17 01:30:07;;;;;;;46.03;23.53;;;3.80;99.90;;;;;;5044769;28;20227;-69
2022/01/17 01:32:58;;;;;;;49.07;24.17;;;3.70;99.90;;;;;;5058389;28;20254;-69
2022/01/17 01:35:57;;;;;;;50.37;23.43;;;3.70;99.90;;;;;;5059138;28;20220;-69
2022/01/17 01:38:47;;;;;;;51.27;24.60;;;3.70;99.90;;;;;;5055854;28;20220;-71
2022/01/17 01:41:41;;;;;;;54.03;25.53;;;3.70;99.90;;;;;;5057845;28;20230;-71
2022/01/17 01:44:30;;;;;;;52.73;26.13;;;3.70;99.90;;;;;;5041359;28;20217;-70
2022/01/17 01:47:22;;;;;;;54.37;25.07;;;3.70;99.90;;;;;;5044687;28;20230;-69
2022/01/17 01:50:12;;;;;;;52.83;25.93;;;3.70;99.90;;;;;;5057290;28;20268;-71
2022/01/17 01:53:00;;;;;;;54.83;26.33;;;3.70;99.90;;;;;;5054937;28;20226;-69
2022/01/17 01:55:51;;;;;;;52.13;24.43;;;3.70;99.90;;;;;;5055513;28;20216;-69
2022/01/17 01:58:42;;;;;;;57.30;26.47;;;3.60;99.90;;;;;;5060907;28;20229;-68
2022/01/17 02:01:31;;;;;;;57.33;27.30;;;3.70;99.90;;;;;;5041104;28;20219;-69
2022/01/17 02:04:20;;;;;;;52.40;26.87;;;3.70;99.90;;;;;;5057516;28;20225;-70
2022/01/17 02:07:08;;;;;;;54.60;26.87;;;3.70;99.90;;;;;;5050436;28;20232;-70
2022/01/17 02:09:57;;;;;;;56.20;27.57;;;3.80;99.90;;;;;;5045266;28;20216;-69
2022/01/17 02:12:50;;;;;;;53.97;26.93;;;3.70;99.90;;;;;;5059565;28;20596;-70
2022/01/17 02:15:42;;;;;;;50.30;25.60;;;3.80;99.90;;;;;;5045755;28;20235;-70
2022/01/17 02:18:31;;;;;;;53.60;27.43;;;3.90;99.90;;;;;;5039472;28;20549;-69
2022/01/17 02:21:32;;;;;;;51.37;26.90;;;3.80;99.90;;;;;;5055846;28;20252;-68
2022/01/17 02:24:22;;;;;;;48.97;22.23;;;3.90;99.90;;;;;;5054374;28;20229;-68
2022/01/17 02:27:11;;;;;;;51.50;26.40;;;3.90;99.90;;;;;;5059528;28;20232;-69
2022/01/17 02:29:59;;;;;;;53.10;25.80;;;3.90;99.90;;;;;;5057579;28;20236;-70
2022/01/17 02:32:48;;;;;;;47.60;24.77;;;3.90;99.90;;;;;;5045355;28;20239;-69
2022/01/17 02:35:37;;;;;;;50.60;25.27;;;3.90;99.90;;;;;;5043317;28;20740;-68
2022/01/17 02:38:27;;;;;;;49.90;26.90;;;3.90;99.90;;;;;;5058640;28;20227;-69
2022/01/17 02:41:15;;;;;;;51.23;26.10;;;3.90;99.90;;;;;;5043509;28;20222;-68
2022/01/17 02:44:04;;;;;;;54.57;27.80;;;3.90;99.90;;;;;;5056246;28;20259;-69
2022/01/17 02:46:53;;;;;;;55.13;26.80;;;3.90;99.90;;;;;;5046716;28;20221;-71
2022/01/17 02:49:42;;;;;;;55.83;26.00;;;4.00;99.90;;;;;;5061857;28;20224;-69
2022/01/17 02:52:34;;;;;;;52.13;26.77;;;4.00;99.90;;;;;;5060904;28;20315;-69
2022/01/17 02:55:24;;;;;;;49.17;26.63;;;4.00;99.90;;;;;;5057535;28;20246;-69
2022/01/17 02:58:12;;;;;;;53.27;25.23;;;4.10;99.90;;;;;;5055520;28;20620;-70
2022/01/17 03:01:04;;;;;;;50.53;26.20;;;4.10;99.90;;;;;;5039751;28;20231;-69
2022/01/17 03:03:55;;;;;;;51.30;25.90;;;4.10;99.90;;;;;;5041547;28;20219;-69
2022/01/17 03:06:43;;;;;;;47.90;25.63;;;4.10;99.90;;;;;;5059771;28;20221;-69
2022/01/17 03:09:41;;;;;;;49.50;26.37;;;4.20;99.90;;;;;;5060275;28;20222;-68
2022/01/17 03:12:31;;;;;;;50.63;24.40;;;4.20;99.90;;;;;;5060802;28;20596;-68
2022/01/17 03:15:22;;;;;;;45.70;23.57;;;4.20;99.90;;;;;;5057411;28;20549;-70
2022/01/17 03:18:14;;;;;;;44.00;24.50;;;4.20;99.90;;;;;;5060746;28;20227;-71
2022/01/17 03:21:03;;;;;;;44.60;23.30;;;4.30;99.90;;;;;;5056194;28;20229;-70
2022/01/17 03:23:53;;;;;;;44.53;22.47;;;4.20;99.90;;;;;;5059189;28;20237;-68
2022/01/17 03:26:41;;;;;;;43.00;23.87;;;4.30;99.90;;;;;;5058796;28;20233;-70
2022/01/17 03:29:31;;;;;;;41.40;23.43;;;4.30;99.90;;;;;;5044735;28;20217;-70
2022/01/17 03:32:20;;;;;;;37.70;21.60;;;4.30;99.90;;;;;;5045429;28;20223;-70
2022/01/17 03:35:14;;;;;;;39.50;22.67;;;4.30;99.90;;;;;;5043759;28;20212;-69
2022/01/17 03:38:03;;;;;;;36.30;20.53;;;4.30;99.90;;;;;;5048367;28;20697;-69
2022/01/17 03:40:53;;;;;;;37.37;21.70;;;4.40;99.90;;;;;;5060337;28;20394;-69
2022/01/17 03:43:42;;;;;;;36.17;21.50;;;4.40;99.90;;;;;;5059424;28;20227;-72
2022/01/17 03:46:32;;;;;;;38.83;21.10;;;4.40;99.90;;;;;;5049192;28;20224;-69
2022/01/17 03:49:21;;;;;;;38.40;20.20;;;4.40;99.90;;;;;;5057200;28;20716;-70
2022/01/17 03:52:09;;;;;;;34.83;20.20;;;4.40;99.90;;;;;;5061000;28;20231;-69
2022/01/17 03:54:58;;;;;;;36.73;20.20;;;4.50;99.90;;;;;;5059750;28;20233;-71
2022/01/17 03:57:47;;;;;;;37.80;20.63;;;4.50;99.90;;;;;;5059542;28;20252;-70
2022/01/17 04:00:39;;;;;;;38.40;20.87;;;4.50;99.90;;;;;;5045737;28;20227;-70
2022/01/17 04:03:29;;;;;;;35.10;19.57;;;4.50;99.90;;;;;;5057987;28;20224;-69
2022/01/17 04:06:18;;;;;;;31.23;18.80;;;4.60;99.90;;;;;;5059921;28;20241;-68
2022/01/17 04:09:07;;;;;;;36.00;19.97;;;4.50;99.90;;;;;;5045483;28;20296;-69
2022/01/17 04:11:56;;;;;;;33.77;19.37;;;4.50;99.90;;;;;;5044427;28;20217;-70
2022/01/17 04:14:44;;;;;;;39.00;20.23;;;4.50;99.90;;;;;;5059501;28;20232;-69
2022/01/17 04:17:33;;;;;;;36.00;19.27;;;4.60;99.90;;;;;;5063529;28;20743;-69
2022/01/17 04:20:27;;;;;;;36.93;19.50;;;4.50;99.90;;;;;;5060672;28;20244;-70
2022/01/17 04:23:17;;;;;;;35.20;19.27;;;4.50;99.90;;;;;;5059390;28;20221;-70
2022/01/17 04:26:05;;;;;;;34.43;19.33;;;4.50;99.90;;;;;;5058436;28;20241;-69
2022/01/17 04:28:54;;;;;;;36.53;19.83;;;4.50;99.90;;;;;;5061587;28;20229;-70
2022/01/17 04:31:42;;;;;;;35.33;19.43;;;4.50;99.90;;;;;;5061181;28;20237;-69
2022/01/17 04:34:32;;;;;;;35.00;19.60;;;4.60;99.90;;;;;;5060899;28;20215;-69
2022/01/17 04:37:26;;;;;;;37.30;19.87;;;4.60;99.90;;;;;;5060841;28;20254;-69
2022/01/17 04:40:15;;;;;;;37.67;20.40;;;4.60;99.90;;;;;;5060748;28;20318;-69
2022/01/17 04:43:12;;;;;;;31.97;19.10;;;4.60;99.90;;;;;;5046827;28;20227;-68
2022/01/17 04:46:01;;;;;;;29.90;17.47;;;4.60;99.90;;;;;;5047983;28;20229;-70
2022/01/17 04:48:51;;;;;;;33.70;17.77;;;4.60;99.90;;;;;;5042477;28;20239;-69
2022/01/17 04:51:39;;;;;;;38.40;19.13;;;4.60;99.90;;;;;;5047322;28;20209;-69
2022/01/17 04:54:40;;;;;;;32.33;18.30;;;4.60;99.90;;;;;;5057547;28;20236;-70
2022/01/17 04:57:28;;;;;;;31.10;18.07;;;4.60;99.90;;;;;;5044013;28;20221;-69
2022/01/17 05:00:19;;;;;;;33.97;18.27;;;4.50;99.90;;;;;;5057770;28;20226;-71
2022/01/17 05:03:08;;;;;;;31.03;17.23;;;4.60;99.90;;;;;;5056618;28;20227;-69
2022/01/17 05:05:59;;;;;;;29.17;15.93;;;4.60;99.90;;;;;;5044753;28;20234;-71
2022/01/17 05:08:48;;;;;;;28.33;14.93;;;4.70;99.90;;;;;;5059907;28;20230;-70
2022/01/17 05:11:43;;;;;;;25.70;14.73;;;4.70;99.90;;;;;;5057944;28;20226;-70
2022/01/17 05:14:31;;;;;;;23.60;13.87;;;4.70;99.90;;;;;;5061325;28;20483;-69
2022/01/17 05:17:37;;;;;;;25.97;13.93;;;4.70;99.90;;;;;;5057538;28;20214;-71
2022/01/17 05:20:27;;;;;;;21.70;12.63;;;4.70;99.90;;;;;;5046330;28;20230;-72
2022/01/17 05:23:15;;;;;;;21.90;11.97;;;4.80;99.90;;;;;;5057756;28;20212;-69
2022/01/17 05:26:04;;;;;;;21.50;11.70;;;4.80;99.90;;;;;;5059170;28;20234;-70
2022/01/17 05:28:54;;;;;;;20.73;12.00;;;4.80;99.90;;;;;;5054459;28;20235;-70
2022/01/17 05:31:43;;;;;;;20.83;12.23;;;4.90;99.90;;;;;;5060416;28;20234;-71
2022/01/17 05:34:33;;;;;;;20.13;12.27;;;4.90;99.90;;;;;;5042887;28;20660;-70
2022/01/17 05:37:22;;;;;;;20.07;11.33;;;4.90;99.90;;;;;;5042550;28;20235;-69
2022/01/17 05:40:13;;;;;;;18.53;9.80;;;4.90;99.90;;;;;;5058384;28;20223;-72
2022/01/17 05:43:02;;;;;;;19.70;11.43;;;4.90;99.90;;;;;;5055597;28;20222;-71
2022/01/17 05:45:52;;;;;;;24.40;12.50;;;4.90;99.90;;;;;;5057442;28;20216;-71
2022/01/17 05:48:41;;;;;;;18.07;11.50;;;5.00;99.90;;;;;;5060296;28;20215;-71
2022/01/17 05:51:29;;;;;;;20.60;11.50;;;5.00;99.90;;;;;;5060153;28;20299;-72
2022/01/17 05:54:18;;;;;;;22.23;10.67;;;4.90;99.90;;;;;;5043443;28;20230;-70
2022/01/17 05:57:12;;;;;;;17.30;10.47;;;5.00;99.90;;;;;;5053038;28;20691;-71
2022/01/17 06:00:00;;;;;;;15.83;10.73;;;5.00;99.90;;;;;;5055786;28;20237;-71
2022/01/17 06:02:50;;;;;;;16.37;10.10;;;5.00;99.90;;;;;;5057539;28;20231;-71
2022/01/17 06:05:39;;;;;;;17.40;10.40;;;5.00;99.90;;;;;;5057455;28;20756;-71
2022/01/17 06:08:27;;;;;;;14.47;9.87;;;5.00;99.90;;;;;;5055581;28;20250;-71
2022/01/17 06:11:16;;;;;;;14.97;9.17;;;5.00;99.90;;;;;;5057087;28;20226;-70
2022/01/17 06:14:06;;;;;;;15.13;9.20;;;5.00;99.90;;;;;;5041912;28;20224;-70
2022/01/17 06:16:55;;;;;;;16.23;9.53;;;5.00;99.90;;;;;;5059149;28;20330;-71
2022/01/17 06:19:45;;;;;;;17.00;8.83;;;5.00;99.90;;;;;;5044155;28;20214;-67
2022/01/17 06:22:34;;;;;;;14.40;8.70;;;5.00;99.90;;;;;;5058557;28;20978;-69
2022/01/17 06:25:22;;;;;;;19.03;8.93;;;5.00;99.90;;;;;;5044415;28;20904;-70
2022/01/17 06:28:11;;;;;;;15.00;7.97;;;5.00;99.90;;;;;;5056515;28;20233;-69
2022/01/17 06:31:00;;;;;;;15.10;8.30;;;5.00;99.90;;;;;;5044228;28;20219;-69
2022/01/17 06:33:48;;;;;;;10.33;6.87;;;5.10;99.90;;;;;;5057061;28;20227;-68
2022/01/17 06:36:41;;;;;;;9.27;5.90;;;5.10;99.90;;;;;;5047311;28;20719;-69
2022/01/17 06:39:29;;;;;;;13.43;8.20;;;5.00;99.90;;;;;;5059038;28;20214;-70
2022/01/17 06:42:18;;;;;;;16.73;9.87;;;5.00;99.90;;;;;;5057736;28;20277;-68
2022/01/17 06:45:08;;;;;;;14.43;8.50;;;5.00;99.90;;;;;;5058732;28;20225;-67
2022/01/17 06:47:57;;;;;;;14.30;7.93;;;5.00;99.90;;;;;;5059574;28;20215;-68
2022/01/17 06:50:45;;;;;;;15.03;8.70;;;5.00;99.90;;;;;;5043674;28;20222;-70
2022/01/17 06:53:35;;;;;;;17.57;9.07;;;5.00;99.90;;;;;;5057140;28;20218;-71
2022/01/17 06:56:24;;;;;;;18.03;8.50;;;5.00;99.90;;;;;;5040494;28;20220;-69
2022/01/17 06:59:13;;;;;;;19.47;8.20;;;5.00;99.90;;;;;;5057875;28;20239;-68
2022/01/17 07:02:02;;;;;;;14.53;7.93;;;5.00;99.90;;;;;;5053601;28;20223;-69
2022/01/17 07:04:51;;;;;;;11.93;7.73;;;5.00;99.90;;;;;;5042901;28;20237;-70
2022/01/17 07:07:39;;;;;;;18.13;7.53;;;5.00;99.90;;;;;;5045374;28;20219;-69
2022/01/17 07:10:29;;;;;;;12.47;6.60;;;5.10;99.90;;;;;;5044236;28;20914;-69
2022/01/17 07:13:18;;;;;;;12.27;7.00;;;5.00;99.90;;;;;;5055014;28;20951;-69
2022/01/17 07:16:06;;;;;;;10.80;6.47;;;5.00;99.90;;;;;;5042252;28;20230;-70
2022/01/17 07:18:55;;;;;;;12.70;7.07;;;5.00;99.90;;;;;;5054909;28;20221;-69
2022/01/17 07:21:44;;;;;;;15.00;6.70;;;5.00;99.90;;;;;;5040384;28;20223;-70
2022/01/17 07:24:54;;;;;;;11.03;6.33;;;5.00;99.90;;;;;;5039884;28;20227;-69
2022/01/17 07:27:44;;;;;;;11.13;7.30;;;5.00;99.90;;;;;;5055179;28;20223;-70
2022/01/17 07:30:33;;;;;;;10.53;6.03;;;5.00;99.90;;;;;;5055887;28;20234;-70
2022/01/17 07:33:23;;;;;;;13.03;6.13;;;5.00;99.90;;;;;;5041748;28;20989;-67
2022/01/17 07:36:17;;;;;;;10.73;5.57;;;5.00;99.90;;;;;;5052681;28;20620;-70
2022/01/17 07:39:06;;;;;;;9.23;5.47;;;5.00;99.90;;;;;;5055287;28;20223;-69
2022/01/17 07:41:55;;;;;;;10.70;5.50;;;5.00;99.90;;;;;;5058548;28;20228;-69
2022/01/17 07:44:53;;;;;;;9.90;4.90;;;4.90;99.90;;;;;;5044592;28;20719;-73
2022/01/17 07:47:45;;;;;;;9.17;5.17;;;5.00;99.90;;;;;;5039982;28;20908;-70
2022/01/17 07:50:34;;;;;;;10.67;4.90;;;5.00;99.90;;;;;;5057415;28;20235;-73
2022/01/17 07:53:23;;;;;;;8.67;4.27;;;4.90;99.90;;;;;;5040650;28;20228;-68
2022/01/17 07:56:12;;;;;;;14.03;5.40;;;5.00;99.90;;;;;;5060020;28;20724;-68
2022/01/17 07:59:00;;;;;;;9.50;5.80;;;5.00;99.90;;;;;;5057757;28;20235;-68
2022/01/17 08:01:50;;;;;;;14.17;5.53;;;4.90;99.90;;;;;;5063066;28;20223;-69
2022/01/17 08:04:39;;;;;;;11.50;5.90;;;5.00;99.90;;;;;;5059317;28;20595;-69
2022/01/17 08:07:28;;;;;;;8.63;5.27;;;4.90;99.90;;;;;;5059976;28;20228;-64
2022/01/17 08:10:18;;;;;;;13.73;5.27;;;5.00;99.90;;;;;;5044095;28;20234;-69
2022/01/17 08:13:07;;;;;;;9.23;5.40;;;4.90;99.90;;;;;;5042726;28;20228;-69
2022/01/17 08:15:56;;;;;;;12.33;5.03;;;4.90;99.90;;;;;;5055560;28;20239;-68
2022/01/17 08:18:46;;;;;;;12.33;5.03;;;4.90;99.90;;;;;;5058816;28;20280;-70
2022/01/17 08:21:35;;;;;;;10.77;5.20;;;4.90;99.90;;;;;;5055040;28;20329;-69
2022/01/17 08:24:24;;;;;;;10.33;4.70;;;4.90;99.90;;;;;;5042388;28;20231;-69
2022/01/17 08:27:12;;;;;;;8.43;4.27;;;5.00;99.90;;;;;;5055513;28;20294;-69
2022/01/17 08:30:01;;;;;;;10.37;4.30;;;5.00;99.90;;;;;;5057843;28;20230;-69
2022/01/17 08:33:11;;;;;;;8.17;4.00;;;5.00;99.90;;;;;;5044358;28;20275;-70
2022/01/17 08:36:01;;;;;;;9.73;4.50;;;4.90;99.90;;;;;;5044812;28;20749;-67
2022/01/17 08:39:06;;;;;;;18.33;4.60;;;5.00;99.90;;;;;;5043057;28;20234;-66
2022/01/17 08:41:56;;;;;;;8.43;4.07;;;5.00;99.90;;;;;;5044027;28;20244;-68
2022/01/17 08:44:49;;;;;;;8.63;4.60;;;5.10;99.90;;;;;;5059420;28;20231;-71
2022/01/17 08:47:38;;;;;;;9.40;4.07;;;5.10;99.90;;;;;;5045435;28;20223;-71
2022/01/17 08:50:28;;;;;;;13.47;3.93;;;5.10;99.90;;;;;;5044918;28;20247;-70
2022/01/17 08:53:19;;;;;;;9.13;3.93;;;5.10;99.90;;;;;;5043032;28;20239;-68
2022/01/17 08:56:09;;;;;;;11.80;3.90;;;5.10;99.90;;;;;;5058558;28;20224;-72
2022/01/17 08:58:58;;;;;;;11.03;4.30;;;5.10;99.90;;;;;;5058133;28;20231;-70
2022/01/17 09:01:47;;;;;;;10.07;3.77;;;5.10;99.90;;;;;;5055508;28;20220;-70
2022/01/17 09:04:40;;;;;;;6.23;1.90;;;5.10;99.90;;;;;;5056967;28;20212;-71
2022/01/17 09:07:29;;;;;;;7.57;1.00;;;4.30;99.90;;;;;;5057047;28;20216;-74
2022/01/17 09:10:19;;;;;;;1.77;0.73;;;2.80;99.90;;;;;;5055768;28;20227;-72
2022/01/17 09:13:08;;;;;;;2.73;0.70;;;2.00;99.90;;;;;;5054747;28;20685;-72
2022/01/17 09:15:56;;;;;;;2.27;0.97;;;1.90;99.90;;;;;;5053673;28;20230;-72
2022/01/17 09:18:45;;;;;;;4.77;0.90;;;1.80;99.90;;;;;;5062332;28;20217;-69
2022/01/17 09:21:34;;;;;;;3.83;1.00;;;1.90;99.90;;;;;;5059030;28;20570;-73
2022/01/17 09:24:23;;;;;;;2.70;1.23;;;1.80;99.90;;;;;;5058625;28;20228;-72
2022/01/17 09:27:15;;;;;;;3.57;1.87;;;2.00;99.90;;;;;;5056938;28;20221;-73
2022/01/17 09:30:07;;;;;;;3.37;1.10;;;2.00;99.90;;;;;;5058141;28;20355;-71
2022/01/17 09:32:55;;;;;;;1.20;1.00;;;2.20;99.90;;;;;;5054660;28;20239;-76
2022/01/17 09:35:44;;;;;;;5.30;1.23;;;2.10;99.90;;;;;;5041151;28;20293;-76
2022/01/17 09:38:32;;;;;;;4.73;2.03;;;2.00;99.90;;;;;;5045949;28;20227;-77
2022/01/17 09:41:21;;;;;;;4.23;2.07;;;1.90;99.90;;;;;;5044166;28;20247;-75
2022/01/17 09:44:12;;;;;;;6.17;2.40;;;2.10;99.90;;;;;;5053134;28;20226;-75
2022/01/17 09:47:01;;;;;;;2.93;1.43;;;1.90;99.90;;;;;;5042769;28;20213;-72
2022/01/17 09:49:54;;;;;;;4.93;1.20;;;2.00;99.90;;;;;;5056186;28;20243;-74
2022/01/17 09:52:49;;;;;;;1.70;1.07;;;2.10;99.90;;;;;;5040617;28;20224;-73
2022/01/17 09:55:38;;;;;;;2.80;1.10;;;2.10;99.90;;;;;;5040134;28;20284;-72
2022/01/17 09:58:28;;;;;;;3.63;2.00;;;2.10;99.90;;;;;;5045855;28;20236;-74
2022/01/17 10:01:18;;;;;;;2.03;1.33;;;2.10;99.90;;;;;;5059253;28;20220;-74
2022/01/17 10:04:07;;;;;;;5.60;1.23;;;2.10;99.90;;;;;;5041935;28;20302;-71
2022/01/17 10:06:58;;;;;;;2.03;1.50;;;2.00;99.90;;;;;;5042058;28;20330;-73
2022/01/17 10:09:56;;;;;;;4.50;1.83;;;1.90;99.90;;;;;;5056233;28;20217;-73
2022/01/17 10:12:44;;;;;;;3.90;1.90;;;2.10;99.90;;;;;;5040486;28;20270;-73
2022/01/17 10:15:45;;;;;;;4.97;2.03;;;2.50;99.90;;;;;;5057316;28;20223;-73
2022/01/17 10:18:38;;;;;;;5.53;1.80;;;2.40;99.90;;;;;;5058938;28;20251;-75
2022/01/17 10:21:31;;;;;;;6.67;2.97;;;2.40;99.90;;;;;;5043418;28;20217;-71
2022/01/17 10:24:25;;;;;;;4.00;2.03;;;2.50;99.90;;;;;;5045136;28;20216;-73
2022/01/17 10:27:31;;;;;;;4.13;2.13;;;2.40;99.90;;;;;;5056537;28;20224;-72
2022/01/17 10:30:42;;;;;;;3.90;2.20;;;2.50;99.90;;;;;;5044286;28;20405;-71
2022/01/17 10:36:49;;;;;;;5.20;1.90;;;2.50;99.90;;;;;;5045244;28;20213;-74
2022/01/17 10:39:38;;;;;;;3.87;1.97;;;2.60;99.90;;;;;;5038891;28;20224;-75
2022/01/17 10:42:30;;;;;;;7.27;2.30;;;2.70;99.90;;;;;;5055256;28;20220;-73
2022/01/17 10:45:23;;;;;;;7.50;2.60;;;2.70;99.90;;;;;;5038365;28;21549;-73
2022/01/17 10:48:12;;;;;;;3.73;1.73;;;2.70;99.90;;;;;;5041699;28;20220;-73
2022/01/17 10:51:01;;;;;;;6.20;1.83;;;2.90;99.90;;;;;;5055360;28;20223;-73
2022/01/17 10:53:55;;;;;;;15.90;2.77;;;3.10;99.90;;;;;;5044153;28;20232;-73
2022/01/17 10:56:50;;;;;;;4.63;1.90;;;3.40;99.90;;;;;;5034423;28;20231;-73
2022/01/17 10:59:39;;;;;;;8.83;2.40;;;3.20;99.90;;;;;;5057649;28;20212;-73
2022/01/17 11:02:28;;;;;;;6.63;2.47;;;3.30;99.90;;;;;;5050876;28;20597;-72
2022/01/17 11:05:19;;;;;;;8.83;1.50;;;3.20;99.90;;;;;;5060811;28;20709;-71
2022/01/17 11:08:08;;;;;;;8.00;1.80;;;3.20;99.90;;;;;;5057073;28;20231;-73
2022/01/17 11:11:03;;;;;;;10.87;2.33;;;3.00;99.90;;;;;;5052193;28;20217;-72
2022/01/17 11:13:54;;;;;;;4.07;1.90;;;2.80;99.90;;;;;;5056696;28;20252;-74
2022/01/17 11:16:43;;;;;;;6.03;1.67;;;2.80;99.90;;;;;;5054401;28;20254;-73
2022/01/17 11:22:40;;;;;;;4.80;1.80;;;2.70;99.90;;;;;;5042648;28;20712;-74
2022/01/17 11:25:30;;;;;;;8.57;1.83;;;2.60;99.90;;;;;;5040927;28;20228;-74
2022/01/17 11:28:22;;;;;;;5.93;2.00;;;2.70;99.90;;;;;;5057823;28;20708;-73
2022/01/17 11:31:15;;;;;;;5.00;2.20;;;2.70;99.90;;;;;;5060471;28;20349;-74
2022/01/17 11:34:07;;;;;;;9.30;2.23;;;2.80;99.90;;;;;;5057002;28;20223;-73
2022/01/17 11:36:56;;;;;;;6.30;2.17;;;2.80;99.90;;;;;;5060342;28;20228;-74
2022/01/17 11:39:48;;;;;;;6.10;2.30;;;2.80;99.90;;;;;;5043150;28;20224;-73
2022/01/17 11:42:40;;;;;;;7.57;2.30;;;2.80;99.90;;;;;;5046132;28;20223;-73
2022/01/17 11:45:38;;;;;;;9.03;2.40;;;2.90;99.90;;;;;;5055725;28;20239;-73
2022/01/17 11:48:29;;;;;;;8.00;2.47;;;3.50;99.90;;;;;;5056817;28;20224;-72
2022/01/17 11:51:18;;;;;;;9.23;2.80;;;4.10;99.90;;;;;;5053992;28;20224;-73
2022/01/17 11:54:11;;;;;;;7.17;2.33;;;3.50;99.90;;;;;;5049091;28;20234;-73
2022/01/17 11:57:02;;;;;;;5.27;1.93;;;3.70;99.90;;;;;;5036570;28;20236;-74
2022/01/17 11:59:51;;;;;;;6.67;2.57;;;3.60;99.90;;;;;;5051475;28;20660;-74
2022/01/17 12:02:41;;;;;;;5.57;2.17;;;3.60;99.90;;;;;;5051779;28;20239;-74
2022/01/17 12:05:35;;;;;;;8.70;2.03;;;3.50;99.90;;;;;;5052225;28;20585;-74
2022/01/17 12:08:26;;;;;;;8.50;2.13;;;3.50;99.90;;;;;;5052895;28;20232;-75
2022/01/17 12:11:27;;;;;;;8.17;2.40;;;3.50;99.90;;;;;;5050227;28;20232;-73
2022/01/17 12:14:27;;;;;;;9.27;1.97;;;3.50;99.90;;;;;;5036870;28;20550;-74
2022/01/17 12:17:31;;;;;;;5.73;1.87;;;3.40;99.90;;;;;;5053941;28;20216;-74
2022/01/17 12:20:24;;;;;;;7.23;1.77;;;3.30;99.90;;;;;;5034132;28;20239;-75
2022/01/17 12:23:29;;;;;;;8.37;1.93;;;3.20;99.90;;;;;;5040367;28;20350;-73
2022/01/17 12:26:30;;;;;;;6.43;1.60;;;3.10;99.90;;;;;;5034993;28;20220;-72
2022/01/17 12:29:36;;;;;;;5.27;2.10;;;3.20;99.90;;;;;;5052089;28;20224;-75
2022/01/17 12:32:51;;;;;;;8.13;2.07;;;3.20;99.90;;;;;;5037249;28;20281;-72
2022/01/17 12:35:46;;;;;;;4.60;1.70;;;3.20;99.90;;;;;;5038633;28;20643;-73
2022/01/17 12:38:39;;;;;;;14.53;3.43;;;3.20;99.90;;;;;;5042025;28;20248;-75
2022/01/17 12:41:36;;;;;;;5.77;2.33;;;3.20;99.90;;;;;;5041666;28;20230;-73
2022/01/17 12:44:26;;;;;;;8.17;1.90;;;3.20;99.90;;;;;;5032506;28;20239;-74
2022/01/17 12:47:15;;;;;;;7.27;1.87;;;3.20;99.90;;;;;;5037245;28;20224;-74
2022/01/17 12:50:26;;;;;;;5.03;2.03;;;3.30;99.90;;;;;;5039693;28;20232;-73
2022/01/17 12:53:18;;;;;;;7.23;1.90;;;3.30;99.90;;;;;;5041659;28;20767;-74
2022/01/17 12:56:08;;;;;;;10.70;2.13;;;3.30;99.90;;;;;;5037186;28;20290;-76
2022/01/17 12:59:01;;;;;;;4.40;1.83;;;3.30;99.90;;;;;;5047418;28;20224;-75
2022/01/17 13:01:52;;;;;;;5.87;1.80;;;3.40;99.90;;;;;;5039008;28;20543;-76
2022/01/17 13:04:41;;;;;;;8.37;2.07;;;3.50;99.90;;;;;;5040549;28;21581;-76
2022/01/17 13:07:30;;;;;;;5.90;1.83;;;3.50;99.90;;;;;;5049954;28;20736;-77
2022/01/17 13:10:20;;;;;;;5.47;1.87;;;3.60;99.90;;;;;;5049179;28;20228;-76
2022/01/17 13:13:15;;;;;;;8.10;2.53;;;3.60;99.90;;;;;;5040109;28;20318;-76
2022/01/17 13:16:07;;;;;;;5.33;1.73;;;3.60;99.90;;;;;;5048086;28;20312;-76
2022/01/17 13:18:58;;;;;;;6.27;2.07;;;3.70;99.90;;;;;;5055767;28;20222;-75
2022/01/17 13:21:49;;;;;;;7.53;2.10;;;3.70;99.90;;;;;;5040807;28;20227;-75
2022/01/17 13:24:53;;;;;;;9.57;2.40;;;3.70;99.90;;;;;;5036744;28;20225;-76
2022/01/17 13:27:44;;;;;;;5.80;2.20;;;3.70;99.90;;;;;;5049413;28;20330;-76
2022/01/17 13:30:34;;;;;;;5.63;2.10;;;3.70;99.90;;;;;;5042249;28;20268;-76
2022/01/17 13:33:39;;;;;;;6.87;2.20;;;3.60;99.90;;;;;;5038174;28;20216;-75
2022/01/17 13:36:29;;;;;;;5.50;1.93;;;3.40;99.90;;;;;;5035121;28;20229;-76
2022/01/17 13:39:20;;;;;;;7.53;1.73;;;3.70;99.90;;;;;;5057944;28;20220;-76
2022/01/17 13:42:09;;;;;;;6.90;1.97;;;3.60;99.90;;;;;;5045810;28;20301;-76
2022/01/17 13:44:59;;;;;;;4.23;1.80;;;3.70;99.90;;;;;;5045798;28;20220;-75
2022/01/17 13:47:54;;;;;;;6.63;1.97;;;3.70;99.90;;;;;;5040291;28;20256;-76
2022/01/17 13:50:48;;;;;;;8.30;1.80;;;3.70;99.90;;;;;;5038068;28;20220;-77
2022/01/17 13:53:41;;;;;;;4.90;1.77;;;3.70;99.90;;;;;;5036747;28;20219;-76
2022/01/17 13:56:35;;;;;;;3.77;1.67;;;3.60;99.90;;;;;;5034773;28;20809;-79
2022/01/17 13:59:25;;;;;;;2.60;1.50;;;3.60;99.90;;;;;;5038275;28;20803;-76
2022/01/17 14:02:16;;;;;;;6.13;1.70;;;3.60;99.90;;;;;;5048996;28;20229;-76
2022/01/17 14:05:10;;;;;;;4.93;2.10;;;3.50;99.90;;;;;;5053039;28;20701;-77
2022/01/17 14:08:15;;;;;;;4.53;1.70;;;3.60;99.90;;;;;;5037991;28;20236;-79
2022/01/17 14:11:06;;;;;;;7.63;1.90;;;3.60;99.90;;;;;;5036389;28;20232;-79
2022/01/17 14:13:58;;;;;;;5.70;1.90;;;3.60;99.90;;;;;;5051007;28;20220;-78
2022/01/17 14:16:48;;;;;;;7.60;1.83;;;3.50;99.90;;;;;;5048427;28;20251;-76
2022/01/17 14:19:38;;;;;;;3.70;1.47;;;3.40;99.90;;;;;;5045559;28;20708;-77
2022/01/17 14:22:27;;;;;;;6.70;1.80;;;3.30;99.90;;;;;;5046034;28;20221;-78
2022/01/17 14:25:20;;;;;;;6.00;1.60;;;3.20;99.90;;;;;;5036084;28;20719;-76
2022/01/17 14:28:10;;;;;;;7.03;2.00;;;3.30;99.90;;;;;;5050810;28;20224;-76
2022/01/17 14:30:59;;;;;;;7.60;2.40;;;3.20;99.90;;;;;;5043013;28;20224;-76
2022/01/17 14:33:51;;;;;;;12.37;4.40;;;3.30;99.90;;;;;;5048633;28;20529;-75
2022/01/17 14:36:42;;;;;;;8.87;2.80;;;3.30;99.90;;;;;;5049170;28;20230;-78
2022/01/17 14:39:33;;;;;;;6.63;2.23;;;3.30;99.90;;;;;;5049975;28;20597;-77
2022/01/17 14:42:29;;;;;;;6.37;2.57;;;3.20;99.90;;;;;;5046952;28;20393;-75
2022/01/17 14:45:18;;;;;;;6.63;1.93;;;3.20;99.90;;;;;;5045594;28;20233;-78
2022/01/17 14:48:15;;;;;;;7.90;1.63;;;3.20;99.90;;;;;;5049078;28;20719;-78
2022/01/17 14:51:16;;;;;;;5.33;1.97;;;3.20;99.90;;;;;;5038500;28;20231;-78
2022/01/17 14:54:13;;;;;;;4.33;1.60;;;3.30;99.90;;;;;;5034897;28;20562;-79
2022/01/17 15:00:25;;;;;;;7.40;2.13;;;3.30;99.90;;;;;;5051099;28;20347;-76
2022/01/17 15:03:15;;;;;;;5.23;1.80;;;3.30;99.90;;;;;;5042131;28;20224;-80
2022/01/17 15:06:05;;;;;;;7.83;1.90;;;3.30;99.90;;;;;;5041888;28;21396;-74
2022/01/17 15:08:55;;;;;;;8.77;2.13;;;3.30;99.90;;;;;;5040274;28;20217;-79